createdAt,value
2023-03-17T00:02:52.541Z,29.13
2023-03-17T00:08:25.996Z,32.05
2023-03-17T00:13:53.103Z,32.28
2023-03-17T00:19:28.681Z,30.33
2023-03-17T00:24:56.076Z,23.38
2023-03-17T00:30:23.835Z,26.45
2023-03-17T00:35:51.242Z,27.88
2023-03-17T00:41:18.541Z,27.77
2023-03-17T00:46:48.171Z,27.17
2023-03-17T00:52:15.312Z,27.40
2023-03-17T00:57:43.128Z,25.80
2023-03-17T01:03:12.652Z,27.60
2023-03-17T01:08:41.289Z,26.40
2023-03-17T01:14:10.131Z,26.90
2023-03-17T01:19:37.611Z,27.75
2023-03-17T01:25:05.694Z,28.83
2023-03-17T01:30:37.769Z,27.67
2023-03-17T01:36:06.497Z,27.93
2023-03-17T01:41:37.641Z,29.77
2023-03-17T01:47:05.303Z,29.05
2023-03-17T01:52:34.594Z,29.25
2023-03-17T01:58:02.222Z,28.42
2023-03-17T02:03:30.015Z,26.77
2023-03-17T02:08:58.322Z,26.05
2023-03-17T02:14:25.766Z,25.73
2023-03-17T02:19:54.779Z,26.25
2023-03-17T02:25:24.524Z,25.92
2023-03-17T02:30:52.719Z,26.70
2023-03-17T02:36:20.829Z,25.88
2023-03-17T02:41:48.751Z,23.23
2023-03-17T02:47:17.381Z,21.85
2023-03-17T02:52:44.686Z,20.92
2023-03-17T02:58:11.878Z,21.08
2023-03-17T03:03:39.857Z,19.33
2023-03-17T03:09:07.504Z,17.48
2023-03-17T03:14:34.700Z,15.82
2023-03-17T03:20:01.570Z,16.77
2023-03-17T03:25:28.901Z,16.40
2023-03-17T03:30:56.683Z,17.35
2023-03-17T03:36:23.571Z,17.00
2023-03-17T03:41:50.460Z,16.45
2023-03-17T03:47:17.844Z,15.93
2023-03-17T03:52:44.495Z,14.32
2023-03-17T03:58:11.663Z,15.25
2023-03-17T04:03:39.153Z,15.95
2023-03-17T04:09:06.581Z,15.27
2023-03-17T04:14:33.716Z,15.82
2023-03-17T04:20:00.860Z,15.20
2023-03-17T04:25:27.854Z,14.57
2023-03-17T04:30:55.943Z,14.48
2023-03-17T04:36:24.276Z,14.68
2023-03-17T04:41:51.995Z,16.63
2023-03-17T04:47:20.208Z,16.33
2023-03-17T04:52:48.126Z,15.77
2023-03-17T04:58:29.889Z,14.27
2023-03-17T05:03:58.085Z,14.52
2023-03-17T05:09:28.911Z,16.80
2023-03-17T05:14:56.214Z,17.02
2023-03-17T05:20:29.180Z,15.73
2023-03-17T05:25:59.323Z,16.67
2023-03-17T05:31:26.978Z,14.80
2023-03-17T05:36:55.173Z,15.00
2023-03-17T05:42:23.111Z,16.55
2023-03-17T05:47:50.012Z,15.13
2023-03-17T05:53:17.693Z,15.25
2023-03-17T05:58:44.831Z,15.80
2023-03-17T06:04:12.820Z,17.63
2023-03-17T06:09:40.397Z,15.40
2023-03-17T06:15:10.002Z,16.38
2023-03-17T06:20:37.234Z,18.60
2023-03-17T06:26:05.737Z,19.27
2023-03-17T06:31:32.689Z,19.38
2023-03-17T06:37:00.210Z,21.85
2023-03-17T06:42:27.110Z,23.50
2023-03-17T06:47:54.559Z,24.98
2023-03-17T06:53:22.308Z,26.90
2023-03-17T06:58:49.286Z,27.55
2023-03-17T07:04:16.967Z,26.60
2023-03-17T07:09:45.428Z,26.55
2023-03-17T07:15:13.621Z,24.95
2023-03-17T07:20:41.926Z,25.25
2023-03-17T07:26:10.124Z,23.00
2023-03-17T07:31:38.905Z,23.13
2023-03-17T07:37:07.225Z,23.58
2023-03-17T07:42:35.098Z,21.75
2023-03-17T07:48:05.739Z,21.77
2023-03-17T07:53:34.415Z,20.23
2023-03-17T07:59:03.394Z,19.83
2023-03-17T08:04:30.586Z,19.27
2023-03-17T08:09:59.213Z,17.55
2023-03-17T08:15:26.586Z,15.68
2023-03-17T08:20:54.544Z,14.95
2023-03-17T08:26:22.247Z,16.02
2023-03-17T08:31:49.630Z,16.38
2023-03-17T08:37:17.509Z,16.08
2023-03-17T08:42:48.455Z,14.45
2023-03-17T08:48:15.565Z,9.73
2023-03-17T08:53:42.495Z,13.30
2023-03-17T08:59:10.280Z,14.63
2023-03-17T09:04:40.244Z,12.15
2023-03-17T09:10:09.803Z,11.15
2023-03-17T09:15:39.269Z,12.07
2023-03-17T09:21:07.357Z,9.63
2023-03-17T09:26:34.757Z,10.43
2023-03-17T09:32:02.668Z,9.55
2023-03-17T09:37:30.375Z,8.82
2023-03-17T09:43:07.385Z,8.57
2023-03-17T09:48:49.968Z,8.10
2023-03-17T09:54:32.877Z,7.65
2023-03-17T10:00:06.765Z,6.97
2023-03-17T10:05:37.673Z,8.77
2023-03-17T10:11:23.192Z,7.82
2023-03-17T10:17:22.475Z,6.93
2023-03-17T10:22:58.402Z,7.60
2023-03-17T10:28:32.014Z,6.07
2023-03-17T10:34:16.870Z,7.03
2023-03-17T10:39:53.441Z,5.70
2023-03-17T10:45:40.936Z,5.05
2023-03-17T10:51:10.476Z,4.43
2023-03-17T10:56:42.168Z,5.15
2023-03-17T11:02:31.941Z,5.20
2023-03-17T11:08:15.495Z,4.28
2023-03-17T11:13:43.373Z,3.70
2023-03-17T11:19:17.049Z,4.72
2023-03-17T11:25:13.001Z,4.10
2023-03-17T11:30:48.471Z,4.38
2023-03-17T11:36:27.652Z,4.35
2023-03-17T11:42:27.942Z,4.78
2023-03-17T11:48:28.413Z,4.65
2023-03-17T11:54:11.181Z,4.55
2023-03-17T12:00:07.333Z,4.70
2023-03-17T12:05:42.206Z,4.38
2023-03-17T12:11:15.557Z,4.53
2023-03-17T12:16:54.801Z,4.50
2023-03-17T12:22:28.767Z,4.22
2023-03-17T12:28:11.282Z,4.70
2023-03-17T12:34:05.600Z,4.13
2023-03-17T12:39:35.402Z,4.82
2023-03-17T12:45:12.138Z,3.80
2023-03-17T12:51:07.082Z,4.70
2023-03-17T12:56:36.896Z,4.40
2023-03-17T13:02:23.394Z,4.63
2023-03-17T13:07:56.545Z,4.15
2023-03-17T13:13:45.543Z,4.55
2023-03-17T13:19:15.949Z,4.60
2023-03-17T13:24:52.634Z,5.03
2023-03-17T13:30:29.537Z,4.72
2023-03-17T13:36:36.685Z,5.00
2023-03-17T13:42:18.809Z,5.10
2023-03-17T13:47:47.634Z,4.43
2023-03-17T13:53:16.062Z,4.40
2023-03-17T13:59:08.314Z,5.13
2023-03-17T14:04:53.047Z,4.72
2023-03-17T14:10:24.067Z,5.00
2023-03-17T14:16:04.170Z,3.88
2023-03-17T14:21:33.644Z,5.13
2023-03-17T14:27:10.243Z,4.20
2023-03-17T14:32:38.850Z,4.13
2023-03-17T14:38:29.754Z,3.65
2023-03-17T14:43:59.611Z,4.35
2023-03-17T14:49:28.831Z,3.85
2023-03-17T14:54:59.775Z,4.43
2023-03-17T15:00:34.396Z,3.90
2023-03-17T15:11:42.215Z,4.68
2023-03-17T15:17:26.845Z,5.10
2023-03-17T15:23:04.944Z,5.05
2023-03-17T15:28:33.486Z,6.53
2023-03-17T15:34:02.165Z,5.82
2023-03-17T15:39:30.376Z,5.22
2023-03-17T15:45:00.340Z,6.03
2023-03-17T15:50:31.100Z,6.90
2023-03-17T15:55:59.705Z,6.68
2023-03-17T16:01:28.042Z,7.10
2023-03-17T16:06:56.351Z,6.95
2023-03-17T16:12:24.214Z,6.72
2023-03-17T16:17:55.138Z,6.07
2023-03-17T16:23:29.042Z,7.03
2023-03-17T16:28:58.839Z,9.23
2023-03-17T16:34:29.114Z,11.70
2023-03-17T16:40:00.935Z,11.20
2023-03-17T16:45:34.391Z,11.65
2023-03-17T16:51:03.725Z,15.02
2023-03-17T16:56:33.445Z,12.63
2023-03-17T17:02:03.247Z,12.90
2023-03-17T17:07:33.418Z,12.60
2023-03-17T17:13:07.521Z,16.52
2023-03-17T17:18:37.984Z,17.20
2023-03-17T17:24:08.783Z,17.75
2023-03-17T17:29:39.796Z,15.13
2023-03-17T17:35:11.344Z,13.32
2023-03-17T17:40:43.217Z,12.60
2023-03-17T17:46:16.781Z,12.60
2023-03-17T17:51:45.943Z,10.68
2023-03-17T17:57:19.142Z,10.25
2023-03-17T18:02:51.975Z,9.77
2023-03-17T18:08:22.548Z,11.45
2023-03-17T18:13:52.556Z,12.10
2023-03-17T18:19:23.959Z,12.13
2023-03-17T18:24:53.673Z,14.10
2023-03-17T18:30:28.582Z,12.32
2023-03-17T18:35:59.557Z,11.10
2023-03-17T18:41:29.573Z,12.65
2023-03-17T18:47:01.247Z,12.82
2023-03-17T18:52:38.653Z,12.73
2023-03-17T18:58:06.589Z,13.55
2023-03-17T19:03:34.314Z,15.00
2023-03-17T19:09:02.428Z,17.15
2023-03-17T19:14:30.002Z,20.45
2023-03-17T19:19:57.555Z,25.48
2023-03-17T19:25:26.222Z,29.05
2023-03-17T19:30:56.227Z,27.45
2023-03-17T19:36:24.608Z,21.58
2023-03-17T19:41:56.191Z,17.80
2023-03-17T19:47:23.460Z,16.40
2023-03-17T19:52:53.424Z,16.30
2023-03-17T19:58:21.894Z,19.02
2023-03-17T20:03:49.588Z,17.92
2023-03-17T20:09:17.312Z,17.58
2023-03-17T20:14:44.581Z,16.13
2023-03-17T20:20:12.890Z,16.50
2023-03-17T20:25:40.196Z,15.40
2023-03-17T20:31:08.395Z,15.18
2023-03-17T20:36:35.356Z,14.90
2023-03-17T20:42:04.483Z,14.20
2023-03-17T20:47:32.298Z,13.68
2023-03-17T20:52:59.445Z,13.18
2023-03-17T20:58:27.902Z,13.68
2023-03-17T21:03:55.567Z,13.82
2023-03-17T21:09:24.153Z,15.07
2023-03-17T21:14:53.560Z,15.30
2023-03-17T21:20:23.908Z,16.65
2023-03-17T21:25:56.182Z,18.52
2023-03-17T21:31:23.659Z,15.63
2023-03-17T21:36:52.136Z,16.15
2023-03-17T21:42:19.852Z,16.45
2023-03-17T21:47:48.063Z,16.35
2023-03-17T21:53:16.004Z,17.15
2023-03-17T21:58:43.774Z,17.33
2023-03-17T22:04:12.744Z,16.35
2023-03-17T22:09:43.089Z,16.20
2023-03-17T22:15:13.531Z,16.30
2023-03-17T22:20:42.937Z,15.23
2023-03-17T22:26:18.861Z,13.38
2023-03-17T22:31:49.254Z,15.13
2023-03-17T22:37:19.332Z,18.10
2023-03-17T22:42:49.902Z,17.23
2023-03-17T22:48:19.288Z,18.25
2023-03-17T22:53:49.483Z,17.75
2023-03-17T22:59:19.913Z,17.40
2023-03-17T23:04:48.717Z,18.58
2023-03-17T23:10:23.206Z,18.52
2023-03-17T23:15:53.271Z,17.13
2023-03-17T23:21:30.845Z,16.08
2023-03-17T23:26:59.762Z,17.88
2023-03-17T23:32:30.011Z,19.40
2023-03-17T23:37:59.261Z,19.15
2023-03-17T23:43:27.669Z,16.40
